sensor_id;sensor_type;location;lat;lon;timestamp;pressure;altitude;pressure_sealevel;temperature;humidity
49216;BME280;45943;53.148;8.204;2023-02-04T00:00:07;103009.38;;;8.27;100.00
49216;BME280;45943;53.148;8.204;2023-02-04T00:02:45;103013.31;;;8.17;100.00
49216;BME280;45943;53.148;8.204;2023-02-04T00:05:11;103014.25;;;8.14;100.00
49216;BME280;45943;53.148;8.204;2023-02-04T00:07:38;103014.31;;;8.13;100.00
49216;BME280;45943;53.148;8.204;2023-02-04T00:10:04;103011.66;;;8.13;100.00
49216;BME280;45943;53.148;8.204;2023-02-04T00:12:31;103022.34;;;8.13;100.00
49216;BME280;45943;53.148;8.204;2023-02-04T00:14:58;103022.28;;;8.14;100.00
49216;BME280;45943;53.148;8.204;2023-02-04T00:17:24;103024.88;;;8.17;100.00
49216;BME280;45943;53.148;8.204;2023-02-04T00:19:50;103018.72;;;8.14;100.00
49216;BME280;45943;53.148;8.204;2023-02-04T00:22:16;103026.75;;;8.14;100.00
49216;BME280;45943;53.148;8.204;2023-02-04T00:24:42;103026.81;;;8.12;100.00
49216;BME280;45943;53.148;8.204;2023-02-04T00:27:13;103026.94;;;8.09;100.00
49216;BME280;45943;53.148;8.204;2023-02-04T00:29:39;103034.13;;;8.07;100.00
49216;BME280;45943;53.148;8.204;2023-02-04T00:32:05;103041.31;;;8.05;100.00
49216;BME280;45943;53.148;8.204;2023-02-04T00:34:31;103030.72;;;8.02;100.00
49216;BME280;45943;53.148;8.204;2023-02-04T00:36:57;103028.13;;;8.00;100.00
49216;BME280;45943;53.148;8.204;2023-02-04T00:39:23;103023.59;;;8.02;100.00
49216;BME280;45943;53.148;8.204;2023-02-04T00:41:49;103035.16;;;8.03;100.00
49216;BME280;45943;53.148;8.204;2023-02-04T00:44:15;103047.50;;;8.07;100.00
49216;BME280;45943;53.148;8.204;2023-02-04T00:46:41;103045.56;;;8.11;100.00
49216;BME280;45943;53.148;8.204;2023-02-04T00:49:07;103050.13;;;8.09;100.00
49216;BME280;45943;53.148;8.204;2023-02-04T00:51:36;103054.59;;;8.08;100.00
49216;BME280;45943;53.148;8.204;2023-02-04T00:54:03;103064.34;;;8.09;100.00
49216;BME280;45943;53.148;8.204;2023-02-04T00:56:30;103061.81;;;8.04;100.00
49216;BME280;45943;53.148;8.204;2023-02-04T00:58:56;103072.75;;;7.98;100.00
49216;BME280;45943;53.148;8.204;2023-02-04T01:01:22;103086.09;;;7.98;100.00
49216;BME280;45943;53.148;8.204;2023-02-04T01:03:48;103086.09;;;7.98;100.00
49216;BME280;45943;53.148;8.204;2023-02-04T01:06:14;103102.22;;;7.95;100.00
49216;BME280;45943;53.148;8.204;2023-02-04T01:08:40;103099.66;;;7.92;100.00
49216;BME280;45943;53.148;8.204;2023-02-04T01:11:06;103108.59;;;7.91;100.00
49216;BME280;45943;53.148;8.204;2023-02-04T01:13:32;103113.06;;;7.91;100.00
49216;BME280;45943;53.148;8.204;2023-02-04T01:15:58;103124.75;;;7.88;100.00
49216;BME280;45943;53.148;8.204;2023-02-04T01:18:24;103122.16;;;7.85;100.00
49216;BME280;45943;53.148;8.204;2023-02-04T01:20:50;103125.75;;;7.84;100.00
49216;BME280;45943;53.148;8.204;2023-02-04T01:23:16;103134.69;;;7.83;100.00
49216;BME280;45943;53.148;8.204;2023-02-04T01:25:42;103140.16;;;7.80;100.00
49216;BME280;45943;53.148;8.204;2023-02-04T01:28:07;103148.22;;;7.79;100.00
49216;BME280;45943;53.148;8.204;2023-02-04T01:30:33;103150.94;;;7.77;100.00
49216;BME280;45943;53.148;8.204;2023-02-04T01:32:59;103157.09;;;7.79;100.00
49216;BME280;45943;53.148;8.204;2023-02-04T01:35:25;103156.06;;;7.83;100.00
49216;BME280;45943;53.148;8.204;2023-02-04T01:37:51;103158.75;;;7.83;100.00
49216;BME280;45943;53.148;8.204;2023-02-04T01:40:17;103167.75;;;7.81;100.00
49216;BME280;45943;53.148;8.204;2023-02-04T01:42:44;103174.81;;;7.82;100.00
49216;BME280;45943;53.148;8.204;2023-02-04T01:45:10;103181.09;;;7.81;100.00
49216;BME280;45943;53.148;8.204;2023-02-04T01:47:36;103199.84;;;7.79;100.00
49216;BME280;45943;53.148;8.204;2023-02-04T01:50:04;103201.78;;;7.74;100.00
49216;BME280;45943;53.148;8.204;2023-02-04T01:52:33;103208.16;;;7.70;100.00
49216;BME280;45943;53.148;8.204;2023-02-04T01:55:01;103210.03;;;7.66;100.00
49216;BME280;45943;53.148;8.204;2023-02-04T01:57:27;103213.72;;;7.62;100.00
49216;BME280;45943;53.148;8.204;2023-02-04T01:59:53;103216.50;;;7.59;100.00
49216;BME280;45943;53.148;8.204;2023-02-04T02:05:08;103225.75;;;7.46;100.00
49216;BME280;45943;53.148;8.204;2023-02-04T02:07:37;103238.44;;;7.39;100.00
49216;BME280;45943;53.148;8.204;2023-02-04T02:10:04;103245.69;;;7.34;100.00
49216;BME280;45943;53.148;8.204;2023-02-04T02:12:31;103246.75;;;7.29;100.00
49216;BME280;45943;53.148;8.204;2023-02-04T02:14:57;103245.06;;;7.25;100.00
49216;BME280;45943;53.148;8.204;2023-02-04T02:17:24;103246.97;;;7.21;100.00
49216;BME280;45943;53.148;8.204;2023-02-04T02:19:50;103254.09;;;7.21;100.00
49216;BME280;45943;53.148;8.204;2023-02-04T02:22:20;103255.06;;;7.18;100.00
49216;BME280;45943;53.148;8.204;2023-02-04T02:24:53;103261.34;;;7.15;100.00
49216;BME280;45943;53.148;8.204;2023-02-04T02:27:19;103259.69;;;7.11;100.00
49216;BME280;45943;53.148;8.204;2023-02-04T02:29:45;103264.19;;;7.09;100.00
49216;BME280;45943;53.148;8.204;2023-02-04T02:32:11;103262.47;;;7.08;100.00
49216;BME280;45943;53.148;8.204;2023-02-04T02:34:39;103264.34;;;7.03;100.00
49216;BME280;45943;53.148;8.204;2023-02-04T02:37:07;103270.63;;;7.02;100.00
49216;BME280;45943;53.148;8.204;2023-02-04T02:39:37;103271.53;;;7.01;100.00
49216;BME280;45943;53.148;8.204;2023-02-04T02:42:05;103262.84;;;6.93;100.00
49216;BME280;45943;53.148;8.204;2023-02-04T02:44:31;103271.00;;;6.88;100.00
49216;BME280;45943;53.148;8.204;2023-02-04T02:46:58;103269.34;;;6.83;100.00
49216;BME280;45943;53.148;8.204;2023-02-04T02:49:25;103270.38;;;6.77;100.00
49216;BME280;45943;53.148;8.204;2023-02-04T02:51:53;103271.28;;;6.76;100.00
49216;BME280;45943;53.148;8.204;2023-02-04T02:56:50;103273.03;;;6.79;100.00
49216;BME280;45943;53.148;8.204;2023-02-04T02:59:17;103270.34;;;6.79;100.00
49216;BME280;45943;53.148;8.204;2023-02-04T03:01:44;103270.28;;;6.82;100.00
49216;BME280;45943;53.148;8.204;2023-02-04T03:04:12;103279.09;;;6.84;100.00
49216;BME280;45943;53.148;8.204;2023-02-04T03:06:40;103284.47;;;6.82;100.00
49216;BME280;45943;53.148;8.204;2023-02-04T03:09:06;103290.84;;;6.77;100.00
49216;BME280;45943;53.148;8.204;2023-02-04T03:11:32;103286.38;;;6.79;100.00
49216;BME280;45943;53.148;8.204;2023-02-04T03:13:58;103289.00;;;6.80;100.00
49216;BME280;45943;53.148;8.204;2023-02-04T03:16:28;103297.09;;;6.76;100.00
49216;BME280;45943;53.148;8.204;2023-02-04T03:18:58;103304.13;;;6.78;100.00
49216;BME280;45943;53.148;8.204;2023-02-04T03:21:25;103305.88;;;6.81;100.00
49216;BME280;45943;53.148;8.204;2023-02-04T03:23:51;103318.34;;;6.80;100.00
49216;BME280;45943;53.148;8.204;2023-02-04T03:26:21;103324.53;;;6.81;100.00
49216;BME280;45943;53.148;8.204;2023-02-04T03:28:48;103334.22;;;6.85;100.00
49216;BME280;45943;53.148;8.204;2023-02-04T03:31:15;103337.72;;;6.87;100.00
49216;BME280;45943;53.148;8.204;2023-02-04T03:33:41;103350.13;;;6.88;100.00
49216;BME280;45943;53.148;8.204;2023-02-04T03:36:07;103346.56;;;6.89;100.00
49216;BME280;45943;53.148;8.204;2023-02-04T03:38:33;103358.22;;;6.85;100.00
49216;BME280;45943;53.148;8.204;2023-02-04T03:41:00;103355.03;;;6.71;100.00
49216;BME280;45943;53.148;8.204;2023-02-04T03:43:26;103360.44;;;6.66;100.00
49216;BME280;45943;53.148;8.204;2023-02-04T03:45:52;103365.75;;;6.68;100.00
49216;BME280;45943;53.148;8.204;2023-02-04T03:48:18;103361.28;;;6.68;100.00
49216;BME280;45943;53.148;8.204;2023-02-04T03:50:44;103363.06;;;6.69;100.00
49216;BME280;45943;53.148;8.204;2023-02-04T03:53:10;103373.72;;;6.69;100.00
49216;BME280;45943;53.148;8.204;2023-02-04T03:55:36;103373.81;;;6.65;100.00
49216;BME280;45943;53.148;8.204;2023-02-04T03:58:02;103376.50;;;6.65;100.00
49216;BME280;45943;53.148;8.204;2023-02-04T04:00:29;103390.78;;;6.62;100.00
49216;BME280;45943;53.148;8.204;2023-02-04T04:02:57;103394.38;;;6.61;100.00
49216;BME280;45943;53.148;8.204;2023-02-04T04:05:23;103396.28;;;6.54;100.00
49216;BME280;45943;53.148;8.204;2023-02-04T04:07:50;103384.03;;;6.46;100.00
49216;BME280;45943;53.148;8.204;2023-02-04T04:10:16;103393.81;;;6.45;100.00
49216;BME280;45943;53.148;8.204;2023-02-04T04:12:42;103402.69;;;6.46;100.00
49216;BME280;45943;53.148;8.204;2023-02-04T04:15:08;103410.81;;;6.41;100.00
49216;BME280;45943;53.148;8.204;2023-02-04T04:17:34;103408.81;;;6.51;100.00
49216;BME280;45943;53.148;8.204;2023-02-04T04:20:00;103417.63;;;6.54;100.00
49216;BME280;45943;53.148;8.204;2023-02-04T04:22:26;103429.28;;;6.49;100.00
49216;BME280;45943;53.148;8.204;2023-02-04T04:24:52;103423.13;;;6.47;100.00
49216;BME280;45943;53.148;8.204;2023-02-04T04:27:18;103431.13;;;6.47;100.00
49216;BME280;45943;53.148;8.204;2023-02-04T04:29:44;103431.06;;;6.48;100.00
49216;BME280;45943;53.148;8.204;2023-02-04T04:32:10;103426.69;;;6.46;100.00
49216;BME280;45943;53.148;8.204;2023-02-04T04:34:36;103440.00;;;6.47;100.00
49216;BME280;45943;53.148;8.204;2023-02-04T04:37:02;103444.44;;;6.47;100.00
49216;BME280;45943;53.148;8.204;2023-02-04T04:39:28;103445.44;;;6.43;100.00
49216;BME280;45943;53.148;8.204;2023-02-04T04:41:54;103451.56;;;6.46;100.00
49216;BME280;45943;53.148;8.204;2023-02-04T04:44:20;103460.44;;;6.47;100.00
49216;BME280;45943;53.148;8.204;2023-02-04T04:46:45;103459.59;;;6.45;100.00
49216;BME280;45943;53.148;8.204;2023-02-04T04:49:11;103455.25;;;6.41;100.00
49216;BME280;45943;53.148;8.204;2023-02-04T04:51:37;103460.72;;;6.35;100.00
49216;BME280;45943;53.148;8.204;2023-02-04T04:54:03;103471.41;;;6.33;100.00
49216;BME280;45943;53.148;8.204;2023-02-04T04:56:29;103460.88;;;6.27;100.00
49216;BME280;45943;53.148;8.204;2023-02-04T04:58:55;103462.72;;;6.23;100.00
49216;BME280;45943;53.148;8.204;2023-02-04T05:01:21;103468.13;;;6.20;100.00
49216;BME280;45943;53.148;8.204;2023-02-04T05:03:47;103461.09;;;6.16;100.00
49216;BME280;45943;53.148;8.204;2023-02-04T05:06:14;103462.91;;;6.14;100.00
49216;BME280;45943;53.148;8.204;2023-02-04T05:08:40;103477.91;;;6.20;100.00
49216;BME280;45943;53.148;8.204;2023-02-04T05:11:06;103471.56;;;6.25;100.00
49216;BME280;45943;53.148;8.204;2023-02-04T05:13:32;103477.84;;;6.23;100.00
49216;BME280;45943;53.148;8.204;2023-02-04T05:15:58;103473.50;;;6.17;100.00
49216;BME280;45943;53.148;8.204;2023-02-04T05:18:24;103477.97;;;6.15;100.00
49216;BME280;45943;53.148;8.204;2023-02-04T05:20:50;103476.09;;;6.22;100.00
49216;BME280;45943;53.148;8.204;2023-02-04T05:23:16;103478.72;;;6.23;100.00
49216;BME280;45943;53.148;8.204;2023-02-04T05:25:42;103486.72;;;6.23;100.00
49216;BME280;45943;53.148;8.204;2023-02-04T05:28:08;103492.03;;;6.23;100.00
49216;BME280;45943;53.148;8.204;2023-02-04T05:30:34;103503.63;;;6.22;100.00
49216;BME280;45943;53.148;8.204;2023-02-04T05:33:00;103508.03;;;6.23;100.00
49216;BME280;45943;53.148;8.204;2023-02-04T05:35:26;103511.56;;;6.24;100.00
49216;BME280;45943;53.148;8.204;2023-02-04T05:37:52;103509.91;;;6.20;100.00
49216;BME280;45943;53.148;8.204;2023-02-04T05:40:18;103508.22;;;6.14;100.00
49216;BME280;45943;53.148;8.204;2023-02-04T05:42:44;103504.63;;;6.15;100.00
49216;BME280;45943;53.148;8.204;2023-02-04T05:45:13;103512.56;;;6.20;100.00
49216;BME280;45943;53.148;8.204;2023-02-04T05:47:40;103512.56;;;6.18;100.00
49216;BME280;45943;53.148;8.204;2023-02-04T05:50:07;103512.69;;;6.12;100.00
49216;BME280;45943;53.148;8.204;2023-02-04T05:52:33;103523.44;;;6.08;100.00
49216;BME280;45943;53.148;8.204;2023-02-04T05:54:59;103526.97;;;6.10;100.00
49216;BME280;45943;53.148;8.204;2023-02-04T05:57:25;103537.50;;;6.16;100.00
49216;BME280;45943;53.148;8.204;2023-02-04T05:59:51;103547.28;;;6.15;100.00
49216;BME280;45943;53.148;8.204;2023-02-04T06:02:17;103552.63;;;6.14;100.00
49216;BME280;45943;53.148;8.204;2023-02-04T06:04:43;103558.88;;;6.13;100.00
49216;BME280;45943;53.148;8.204;2023-02-04T06:07:09;103564.22;;;6.13;100.00
49216;BME280;45943;53.148;8.204;2023-02-04T06:09:35;103556.22;;;6.13;100.00
49216;BME280;45943;53.148;8.204;2023-02-04T06:12:01;103553.41;;;6.20;100.00
49216;BME280;45943;53.148;8.204;2023-02-04T06:14:27;103566.78;;;6.17;100.00
49216;BME280;45943;53.148;8.204;2023-02-04T06:16:53;103573.09;;;6.13;100.00
49216;BME280;45943;53.148;8.204;2023-02-04T06:19:19;103572.19;;;6.13;100.00
49216;BME280;45943;53.148;8.204;2023-02-04T06:21:45;103577.59;;;6.08;100.00
49216;BME280;45943;53.148;8.204;2023-02-04T06:24:11;103573.16;;;6.10;100.00
49216;BME280;45943;53.148;8.204;2023-02-04T06:26:37;103585.59;;;6.08;100.00
49216;BME280;45943;53.148;8.204;2023-02-04T06:29:02;103590.03;;;6.08;100.00
49216;BME280;45943;53.148;8.204;2023-02-04T06:31:29;103602.47;;;6.09;100.00
49216;BME280;45943;53.148;8.204;2023-02-04T06:33:55;103597.94;;;6.14;100.00
49216;BME280;45943;53.148;8.204;2023-02-04T06:36:21;103605.94;;;6.14;100.00
49216;BME280;45943;53.148;8.204;2023-02-04T06:38:47;103614.88;;;6.11;100.00
49216;BME280;45943;53.148;8.204;2023-02-04T06:41:13;103612.25;;;6.10;100.00
49216;BME280;45943;53.148;8.204;2023-02-04T06:43:39;103613.09;;;6.12;100.00
49216;BME280;45943;53.148;8.204;2023-02-04T06:46:04;103616.66;;;6.09;100.00
49216;BME280;45943;53.148;8.204;2023-02-04T06:48:30;103614.91;;;6.10;100.00
49216;BME280;45943;53.148;8.204;2023-02-04T06:50:56;103619.34;;;6.08;100.00
49216;BME280;45943;53.148;8.204;2023-02-04T06:53:22;103614.19;;;6.00;100.00
49216;BME280;45943;53.148;8.204;2023-02-04T06:55:48;103617.84;;;5.93;100.00
49216;BME280;45943;53.148;8.204;2023-02-04T06:58:14;103618.78;;;5.90;100.00
49216;BME280;45943;53.148;8.204;2023-02-04T07:00:40;103611.66;;;5.88;100.00
49216;BME280;45943;53.148;8.204;2023-02-04T07:03:06;103626.03;;;5.78;100.00
49216;BME280;45943;53.148;8.204;2023-02-04T07:05:32;103626.97;;;5.75;100.00
49216;BME280;45943;53.148;8.204;2023-02-04T07:07:59;103635.81;;;5.77;100.00
49216;BME280;45943;53.148;8.204;2023-02-04T07:10:25;103642.03;;;5.78;100.00
49216;BME280;45943;53.148;8.204;2023-02-04T07:12:51;103648.22;;;5.78;100.00
49216;BME280;45943;53.148;8.204;2023-02-04T07:15:17;103650.03;;;5.76;100.00
49216;BME280;45943;53.148;8.204;2023-02-04T07:17:43;103664.19;;;5.81;100.00
49216;BME280;45943;53.148;8.204;2023-02-04T07:20:09;103666.78;;;5.84;100.00
49216;BME280;45943;53.148;8.204;2023-02-04T07:22:36;103670.34;;;5.83;100.00
49216;BME280;45943;53.148;8.204;2023-02-04T07:25:02;103674.81;;;5.83;100.00
49216;BME280;45943;53.148;8.204;2023-02-04T07:27:28;103686.25;;;5.88;100.00
49216;BME280;45943;53.148;8.204;2023-02-04T07:29:54;103683.56;;;5.89;100.00
49216;BME280;45943;53.148;8.204;2023-02-04T07:32:20;103696.00;;;5.89;100.00
49216;BME280;45943;53.148;8.204;2023-02-04T07:34:46;103694.25;;;5.91;100.00
49216;BME280;45943;53.148;8.204;2023-02-04T07:37:12;103699.56;;;5.92;100.00
49216;BME280;45943;53.148;8.204;2023-02-04T07:39:38;103687.16;;;5.87;100.00
49216;BME280;45943;53.148;8.204;2023-02-04T07:42:04;103687.28;;;5.81;100.00
49216;BME280;45943;53.148;8.204;2023-02-04T07:44:30;103688.19;;;5.76;100.00
49216;BME280;45943;53.148;8.204;2023-02-04T07:46:56;103690.91;;;5.75;100.00
49216;BME280;45943;53.148;8.204;2023-02-04T07:49:22;103695.31;;;5.76;100.00
49216;BME280;45943;53.148;8.204;2023-02-04T07:51:48;103690.94;;;5.72;100.00
49216;BME280;45943;53.148;8.204;2023-02-04T07:54:14;103695.50;;;5.64;100.00
49216;BME280;45943;53.148;8.204;2023-02-04T07:56:40;103699.03;;;5.64;100.00
49216;BME280;45943;53.148;8.204;2023-02-04T07:59:06;103689.22;;;5.68;100.00
49216;BME280;45943;53.148;8.204;2023-02-04T08:01:32;103697.09;;;5.75;100.00
49216;BME280;45943;53.148;8.204;2023-02-04T08:03:58;103704.22;;;5.75;100.00
49216;BME280;45943;53.148;8.204;2023-02-04T08:06:24;103712.25;;;5.72;100.00
49216;BME280;45943;53.148;8.204;2023-02-04T08:08:50;103717.53;;;5.75;100.00
49216;BME280;45943;53.148;8.204;2023-02-04T08:11:16;103720.13;;;5.78;100.00
49216;BME280;45943;53.148;8.204;2023-02-04T08:13:42;103721.13;;;5.72;100.00
49216;BME280;45943;53.148;8.204;2023-02-04T08:16:08;103723.75;;;5.74;100.00
49216;BME280;45943;53.148;8.204;2023-02-04T08:18:34;103728.19;;;5.75;100.00
49216;BME280;45943;53.148;8.204;2023-02-04T08:21:00;103731.91;;;5.63;100.00
49216;BME280;45943;53.148;8.204;2023-02-04T08:23:27;103735.50;;;5.61;100.00
49216;BME280;45943;53.148;8.204;2023-02-04T08:25:53;103737.34;;;5.54;100.00
49216;BME280;45943;53.148;8.204;2023-02-04T08:28:19;103739.25;;;5.44;100.00
49216;BME280;45943;53.148;8.204;2023-02-04T08:30:45;103746.31;;;5.47;100.00
49216;BME280;45943;53.148;8.204;2023-02-04T08:33:11;103750.56;;;5.60;100.00
49216;BME280;45943;53.148;8.204;2023-02-04T08:35:37;103757.47;;;5.76;100.00
49216;BME280;45943;53.148;8.204;2023-02-04T08:38:03;103753.81;;;5.84;100.00
49216;BME280;45943;53.148;8.204;2023-02-04T08:40:29;103760.88;;;5.86;100.00
49216;BME280;45943;53.148;8.204;2023-02-04T08:42:55;103761.06;;;5.72;100.00
49216;BME280;45943;53.148;8.204;2023-02-04T08:45:21;103776.84;;;5.86;100.00
49216;BME280;45943;53.148;8.204;2023-02-04T08:47:47;103774.28;;;5.79;100.00
49216;BME280;45943;53.148;8.204;2023-02-04T08:50:13;103786.59;;;5.92;100.00
49216;BME280;45943;53.148;8.204;2023-02-04T08:52:39;103788.19;;;6.03;100.00
49216;BME280;45943;53.148;8.204;2023-02-04T08:55:05;103796.72;;;6.27;100.00
49216;BME280;45943;53.148;8.204;2023-02-04T08:57:31;103787.78;;;6.31;100.00
49216;BME280;45943;53.148;8.204;2023-02-04T08:59:59;103787.94;;;6.22;100.00
49216;BME280;45943;53.148;8.204;2023-02-04T09:02:25;103788.91;;;6.15;100.00
49216;BME280;45943;53.148;8.204;2023-02-04T09:04:51;103792.50;;;6.14;100.00
49216;BME280;45943;53.148;8.204;2023-02-04T09:07:17;103789.13;;;5.99;100.00
49216;BME280;45943;53.148;8.204;2023-02-04T09:09:43;103790.84;;;6.05;100.00
49216;BME280;45943;53.148;8.204;2023-02-04T09:12:09;103788.09;;;6.11;100.00
49216;BME280;45943;53.148;8.204;2023-02-04T09:14:35;103799.47;;;6.22;100.00
49216;BME280;45943;53.148;8.204;2023-02-04T09:17:01;103797.56;;;6.30;100.00
49216;BME280;45943;53.148;8.204;2023-02-04T09:19:28;103796.75;;;6.25;100.00
49216;BME280;45943;53.148;8.204;2023-02-04T09:21:54;103803.75;;;6.32;100.00
49216;BME280;45943;53.148;8.204;2023-02-04T09:24:20;103806.19;;;6.46;100.00
49216;BME280;45943;53.148;8.204;2023-02-04T09:26:48;103800.63;;;6.61;100.00
49216;BME280;45943;53.148;8.204;2023-02-04T09:29:14;103805.72;;;6.75;100.00
49216;BME280;45943;53.148;8.204;2023-02-04T09:31:40;103809.50;;;6.62;100.00
49216;BME280;45943;53.148;8.204;2023-02-04T09:34:06;103808.66;;;6.58;100.00
49216;BME280;45943;53.148;8.204;2023-02-04T09:36:32;103814.91;;;6.57;100.00
49216;BME280;45943;53.148;8.204;2023-02-04T09:39:05;103810.44;;;6.59;100.00
49216;BME280;45943;53.148;8.204;2023-02-04T09:41:33;103814.81;;;6.64;100.00
49216;BME280;45943;53.148;8.204;2023-02-04T09:44:00;103816.63;;;6.61;100.00
49216;BME280;45943;53.148;8.204;2023-02-04T09:46:29;103814.72;;;6.68;100.00
49216;BME280;45943;53.148;8.204;2023-02-04T09:48:57;103822.38;;;6.88;100.00
49216;BME280;45943;53.148;8.204;2023-02-04T09:51:25;103832.06;;;6.95;100.00
49216;BME280;45943;53.148;8.204;2023-02-04T09:53:54;103830.19;;;7.00;100.00
49216;BME280;45943;53.148;8.204;2023-02-04T09:56:27;103847.75;;;7.13;100.00
49216;BME280;45943;53.148;8.204;2023-02-04T09:58:53;103833.50;;;7.14;100.00
49216;BME280;45943;53.148;8.204;2023-02-04T10:01:19;103841.53;;;7.13;100.00
49216;BME280;45943;53.148;8.204;2023-02-04T10:03:46;103841.38;;;7.22;100.00
49216;BME280;45943;53.148;8.204;2023-02-04T10:06:13;103856.59;;;7.15;100.00
49216;BME280;45943;53.148;8.204;2023-02-04T10:08:41;103862.63;;;7.28;100.00
49216;BME280;45943;53.148;8.204;2023-02-04T10:11:08;103862.59;;;7.30;100.00
49216;BME280;45943;53.148;8.204;2023-02-04T10:13:38;103851.97;;;7.25;100.00
49216;BME280;45943;53.148;8.204;2023-02-04T10:16:11;103856.44;;;7.25;100.00
49216;BME280;45943;53.148;8.204;2023-02-04T10:18:48;103862.34;;;7.42;100.00
49216;BME280;45943;53.148;8.204;2023-02-04T10:21:26;103854.25;;;7.48;100.00
49216;BME280;45943;53.148;8.204;2023-02-04T10:23:54;103859.78;;;7.36;100.00
49216;BME280;45943;53.148;8.204;2023-02-04T10:26:22;103843.88;;;7.31;100.00
49216;BME280;45943;53.148;8.204;2023-02-04T10:28:58;103838.53;;;7.31;100.00
49216;BME280;45943;53.148;8.204;2023-02-04T10:31:30;103853.75;;;7.28;100.00
49216;BME280;45943;53.148;8.204;2023-02-04T10:34:10;103842.31;;;7.19;100.00
49216;BME280;45943;53.148;8.204;2023-02-04T10:36:37;103843.94;;;7.27;100.00
49216;BME280;45943;53.148;8.204;2023-02-04T10:39:05;103844.88;;;7.24;100.00
49216;BME280;45943;53.148;8.204;2023-02-04T10:41:36;103851.03;;;7.29;100.00
49216;BME280;45943;53.148;8.204;2023-02-04T10:44:11;103852.41;;;7.50;100.00
49216;BME280;45943;53.148;8.204;2023-02-04T10:46:38;103851.91;;;7.74;100.00
49216;BME280;45943;53.148;8.204;2023-02-04T10:49:15;103848.94;;;7.90;100.00
49216;BME280;45943;53.148;8.204;2023-02-04T10:51:43;103849.97;;;7.83;100.00
49216;BME280;45943;53.148;8.204;2023-02-04T10:54:11;103845.09;;;7.60;100.00
49216;BME280;45943;53.148;8.204;2023-02-04T10:56:57;103846.78;;;7.64;100.00
49216;BME280;45943;53.148;8.204;2023-02-04T10:59:25;103840.41;;;7.71;100.00
49216;BME280;45943;53.148;8.204;2023-02-04T11:01:55;103838.69;;;7.67;100.00
49216;BME280;45943;53.148;8.204;2023-02-04T11:04:25;103837.13;;;7.57;100.00
49216;BME280;45943;53.148;8.204;2023-02-04T11:06:51;103838.03;;;7.57;100.00
49216;BME280;45943;53.148;8.204;2023-02-04T11:09:17;103837.13;;;7.58;100.00
49216;BME280;45943;53.148;8.204;2023-02-04T11:11:47;103850.09;;;7.75;100.00
49216;BME280;45943;53.148;8.204;2023-02-04T11:14:22;103865.13;;;7.82;100.00
49216;BME280;45943;53.148;8.204;2023-02-04T11:16:48;103861.69;;;7.77;100.00
49216;BME280;45943;53.148;8.204;2023-02-04T11:19:28;103851.47;;;7.94;100.00
49216;BME280;45943;53.148;8.204;2023-02-04T11:22:05;103855.78;;;8.01;100.00
49216;BME280;45943;53.148;8.204;2023-02-04T11:24:48;103856.38;;;8.16;100.00
49216;BME280;45943;53.148;8.204;2023-02-04T11:27:19;103865.09;;;8.24;100.00
49216;BME280;45943;53.148;8.204;2023-02-04T11:29:49;103853.81;;;8.11;100.00
49216;BME280;45943;53.148;8.204;2023-02-04T11:32:30;103840.59;;;8.03;100.00
49216;BME280;45943;53.148;8.204;2023-02-04T11:35:06;103847.63;;;8.09;100.00
49216;BME280;45943;53.148;8.204;2023-02-04T11:37:45;103851.94;;;8.16;100.00
49216;BME280;45943;53.148;8.204;2023-02-04T11:42:47;103849.25;;;8.16;100.00
49216;BME280;45943;53.148;8.204;2023-02-04T11:45:15;103849.16;;;8.19;100.00
49216;BME280;45943;53.148;8.204;2023-02-04T11:47:41;103852.53;;;8.29;100.00
49216;BME280;45943;53.148;8.204;2023-02-04T11:50:16;103843.28;;;8.44;100.00
49216;BME280;45943;53.148;8.204;2023-02-04T11:52:44;103845.03;;;8.46;100.00
49216;BME280;45943;53.148;8.204;2023-02-04T11:55:11;103846.63;;;8.53;100.00
49216;BME280;45943;53.148;8.204;2023-02-04T11:57:41;103840.03;;;8.68;100.00
49216;BME280;45943;53.148;8.204;2023-02-04T12:00:12;103839.19;;;8.66;100.00
49216;BME280;45943;53.148;8.204;2023-02-04T12:02:41;103843.94;;;8.53;100.00
49216;BME280;45943;53.148;8.204;2023-02-04T12:05:14;103843.84;;;8.58;100.00
49216;BME280;45943;53.148;8.204;2023-02-04T12:07:42;103845.69;;;8.56;100.00
49216;BME280;45943;53.148;8.204;2023-02-04T12:10:10;103847.06;;;8.72;100.00
49216;BME280;45943;53.148;8.204;2023-02-04T12:12:49;103849.91;;;8.65;100.00
49216;BME280;45943;53.148;8.204;2023-02-04T12:15:21;103856.25;;;8.60;100.00
49216;BME280;45943;53.148;8.204;2023-02-04T12:18:01;103853.19;;;8.77;100.00
49216;BME280;45943;53.148;8.204;2023-02-04T12:20:29;103849.28;;;8.90;100.00
49216;BME280;45943;53.148;8.204;2023-02-04T12:22:55;103846.00;;;8.79;100.00
49216;BME280;45943;53.148;8.204;2023-02-04T12:25:21;103847.38;;;8.96;100.00
49216;BME280;45943;53.148;8.204;2023-02-04T12:27:47;103843.34;;;9.12;100.00
49216;BME280;45943;53.148;8.204;2023-02-04T12:30:13;103839.34;;;9.28;100.00
49216;BME280;45943;53.148;8.204;2023-02-04T12:32:39;103842.91;;;9.29;100.00
49216;BME280;45943;53.148;8.204;2023-02-04T12:35:05;103851.88;;;9.28;100.00
49216;BME280;45943;53.148;8.204;2023-02-04T12:37:31;103851.91;;;9.26;100.00
49216;BME280;45943;53.148;8.204;2023-02-04T12:39:57;103852.78;;;9.27;100.00
49216;BME280;45943;53.148;8.204;2023-02-04T12:42:23;103863.50;;;9.27;100.00
49216;BME280;45943;53.148;8.204;2023-02-04T12:44:49;103869.94;;;9.52;100.00
49216;BME280;45943;53.148;8.204;2023-02-04T12:47:15;103865.97;;;9.67;100.00
49216;BME280;45943;53.148;8.204;2023-02-04T12:49:41;103861.16;;;9.78;100.00
49216;BME280;45943;53.148;8.204;2023-02-04T12:52:08;103861.34;;;9.72;100.00
49216;BME280;45943;53.148;8.204;2023-02-04T12:54:34;103865.25;;;9.60;100.00
49216;BME280;45943;53.148;8.204;2023-02-04T12:57:00;103857.25;;;9.59;100.00